sensor_id;sensor_type;location;lat;lon;timestamp;P1;durP1;ratioP1;P2;durP2;ratioP2
21513;SDS011;10918;48.102;11.636;2022-11-15T00:00:55;4.47;;;3.70;;
21513;SDS011;10918;48.102;11.636;2022-11-15T00:03:22;4.40;;;3.42;;
21513;SDS011;10918;48.102;11.636;2022-11-15T00:05:49;5.20;;;3.40;;
21513;SDS011;10918;48.102;11.636;2022-11-15T00:08:15;5.15;;;3.40;;
21513;SDS011;10918;48.102;11.636;2022-11-15T00:10:41;4.57;;;3.35;;
21513;SDS011;10918;48.102;11.636;2022-11-15T00:13:11;3.85;;;3.10;;
21513;SDS011;10918;48.102;11.636;2022-11-15T00:15:37;4.68;;;3.80;;
21513;SDS011;10918;48.102;11.636;2022-11-15T00:18:04;5.68;;;3.75;;
21513;SDS011;10918;48.102;11.636;2022-11-15T00:20:31;5.20;;;3.97;;
21513;SDS011;10918;48.102;11.636;2022-11-15T00:22:57;4.72;;;3.17;;
21513;SDS011;10918;48.102;11.636;2022-11-15T00:25:22;5.85;;;3.38;;
21513;SDS011;10918;48.102;11.636;2022-11-15T00:27:48;5.53;;;3.17;;
21513;SDS011;10918;48.102;11.636;2022-11-15T00:30:16;4.88;;;3.08;;
21513;SDS011;10918;48.102;11.636;2022-11-15T00:32:42;4.70;;;3.10;;
21513;SDS011;10918;48.102;11.636;2022-11-15T00:35:08;4.78;;;3.67;;
21513;SDS011;10918;48.102;11.636;2022-11-15T00:37:34;4.15;;;3.22;;
21513;SDS011;10918;48.102;11.636;2022-11-15T00:40:00;4.47;;;3.15;;
21513;SDS011;10918;48.102;11.636;2022-11-15T00:42:26;4.55;;;3.13;;
21513;SDS011;10918;48.102;11.636;2022-11-15T00:44:52;3.97;;;3.20;;
21513;SDS011;10918;48.102;11.636;2022-11-15T00:47:18;4.43;;;3.25;;
21513;SDS011;10918;48.102;11.636;2022-11-15T00:49:44;5.10;;;2.72;;
21513;SDS011;10918;48.102;11.636;2022-11-15T00:52:10;5.07;;;2.70;;
21513;SDS011;10918;48.102;11.636;2022-11-15T00:54:36;4.75;;;3.03;;
21513;SDS011;10918;48.102;11.636;2022-11-15T00:57:02;3.70;;;2.85;;
21513;SDS011;10918;48.102;11.636;2022-11-15T00:59:28;3.58;;;3.05;;
21513;SDS011;10918;48.102;11.636;2022-11-15T01:01:54;5.20;;;3.63;;
21513;SDS011;10918;48.102;11.636;2022-11-15T01:04:20;8.43;;;3.97;;
21513;SDS011;10918;48.102;11.636;2022-11-15T01:06:46;3.65;;;2.90;;
21513;SDS011;10918;48.102;11.636;2022-11-15T01:09:12;5.55;;;2.72;;
21513;SDS011;10918;48.102;11.636;2022-11-15T01:11:39;3.30;;;2.67;;
21513;SDS011;10918;48.102;11.636;2022-11-15T01:14:05;3.60;;;2.85;;
21513;SDS011;10918;48.102;11.636;2022-11-15T01:16:31;5.13;;;2.83;;
21513;SDS011;10918;48.102;11.636;2022-11-15T01:18:58;3.58;;;2.97;;
21513;SDS011;10918;48.102;11.636;2022-11-15T01:21:24;2.70;;;2.50;;
21513;SDS011;10918;48.102;11.636;2022-11-15T01:23:59;3.42;;;2.83;;
21513;SDS011;10918;48.102;11.636;2022-11-15T01:26:25;3.65;;;2.72;;
21513;SDS011;10918;48.102;11.636;2022-11-15T01:28:51;3.85;;;2.80;;
21513;SDS011;10918;48.102;11.636;2022-11-15T01:31:18;3.60;;;2.75;;
21513;SDS011;10918;48.102;11.636;2022-11-15T01:33:45;3.20;;;2.55;;
21513;SDS011;10918;48.102;11.636;2022-11-15T01:36:12;3.40;;;2.67;;
21513;SDS011;10918;48.102;11.636;2022-11-15T01:38:38;3.10;;;2.45;;
21513;SDS011;10918;48.102;11.636;2022-11-15T01:41:04;4.15;;;2.97;;
21513;SDS011;10918;48.102;11.636;2022-11-15T01:43:32;3.63;;;2.30;;
21513;SDS011;10918;48.102;11.636;2022-11-15T01:46:44;3.13;;;2.47;;
21513;SDS011;10918;48.102;11.636;2022-11-15T01:48:44;3.60;;;2.75;;
21513;SDS011;10918;48.102;11.636;2022-11-15T01:51:11;3.42;;;2.67;;
21513;SDS011;10918;48.102;11.636;2022-11-15T01:53:39;3.00;;;2.42;;
21513;SDS011;10918;48.102;11.636;2022-11-15T01:56:06;3.83;;;2.75;;
21513;SDS011;10918;48.102;11.636;2022-11-15T01:58:33;4.35;;;3.25;;
21513;SDS011;10918;48.102;11.636;2022-11-15T02:00:59;3.97;;;2.67;;
21513;SDS011;10918;48.102;11.636;2022-11-15T02:03:26;3.25;;;2.40;;
21513;SDS011;10918;48.102;11.636;2022-11-15T02:05:55;3.20;;;2.67;;
21513;SDS011;10918;48.102;11.636;2022-11-15T02:08:21;4.40;;;3.20;;
21513;SDS011;10918;48.102;11.636;2022-11-15T02:10:47;5.32;;;2.65;;
21513;SDS011;10918;48.102;11.636;2022-11-15T02:13:14;3.00;;;2.42;;
21513;SDS011;10918;48.102;11.636;2022-11-15T02:15:44;3.60;;;2.33;;
21513;SDS011;10918;48.102;11.636;2022-11-15T02:18:18;3.60;;;2.80;;
21513;SDS011;10918;48.102;11.636;2022-11-15T02:20:52;2.92;;;2.38;;
21513;SDS011;10918;48.102;11.636;2022-11-15T02:28:29;3.72;;;2.25;;
21513;SDS011;10918;48.102;11.636;2022-11-15T02:31:08;3.05;;;2.65;;
21513;SDS011;10918;48.102;11.636;2022-11-15T02:36:10;3.83;;;2.47;;
21513;SDS011;10918;48.102;11.636;2022-11-15T02:38:50;2.60;;;2.30;;
21513;SDS011;10918;48.102;11.636;2022-11-15T02:41:25;3.95;;;2.42;;
21513;SDS011;10918;48.102;11.636;2022-11-15T02:44:00;3.30;;;2.50;;
21513;SDS011;10918;48.102;11.636;2022-11-15T02:49:12;5.05;;;2.63;;
21513;SDS011;10918;48.102;11.636;2022-11-15T02:51:39;3.42;;;2.20;;
21513;SDS011;10918;48.102;11.636;2022-11-15T02:54:06;4.85;;;2.83;;
21513;SDS011;10918;48.102;11.636;2022-11-15T02:56:32;4.43;;;2.53;;
21513;SDS011;10918;48.102;11.636;2022-11-15T02:59:12;3.35;;;2.17;;
21513;SDS011;10918;48.102;11.636;2022-11-15T03:04:29;2.78;;;2.22;;
21513;SDS011;10918;48.102;11.636;2022-11-15T03:07:04;2.83;;;2.25;;
21513;SDS011;10918;48.102;11.636;2022-11-15T03:12:07;2.47;;;2.10;;
21513;SDS011;10918;48.102;11.636;2022-11-15T03:14:37;2.55;;;2.17;;
21513;SDS011;10918;48.102;11.636;2022-11-15T03:19:46;3.55;;;2.33;;
21513;SDS011;10918;48.102;11.636;2022-11-15T03:22:16;2.70;;;2.13;;
21513;SDS011;10918;48.102;11.636;2022-11-15T03:24:43;2.58;;;2.00;;
21513;SDS011;10918;48.102;11.636;2022-11-15T03:27:12;3.03;;;2.20;;
21513;SDS011;10918;48.102;11.636;2022-11-15T03:29:39;2.58;;;2.35;;
21513;SDS011;10918;48.102;11.636;2022-11-15T03:32:08;2.90;;;2.25;;
21513;SDS011;10918;48.102;11.636;2022-11-15T03:34:39;2.72;;;2.28;;
21513;SDS011;10918;48.102;11.636;2022-11-15T03:37:06;2.65;;;2.10;;
21513;SDS011;10918;48.102;11.636;2022-11-15T03:39:33;3.13;;;2.40;;
21513;SDS011;10918;48.102;11.636;2022-11-15T03:44:32;2.45;;;1.90;;
21513;SDS011;10918;48.102;11.636;2022-11-15T03:47:03;3.05;;;2.08;;
21513;SDS011;10918;48.102;11.636;2022-11-15T03:49:33;2.83;;;2.13;;
21513;SDS011;10918;48.102;11.636;2022-11-15T03:52:00;2.63;;;2.13;;
21513;SDS011;10918;48.102;11.636;2022-11-15T03:54:28;2.25;;;2.03;;
21513;SDS011;10918;48.102;11.636;2022-11-15T03:56:54;2.50;;;2.17;;
21513;SDS011;10918;48.102;11.636;2022-11-15T03:59:20;2.35;;;1.92;;
21513;SDS011;10918;48.102;11.636;2022-11-15T04:01:46;2.15;;;1.80;;
21513;SDS011;10918;48.102;11.636;2022-11-15T04:04:12;2.20;;;1.98;;
21513;SDS011;10918;48.102;11.636;2022-11-15T04:06:38;1.83;;;1.50;;
21513;SDS011;10918;48.102;11.636;2022-11-15T04:09:04;2.33;;;1.90;;
21513;SDS011;10918;48.102;11.636;2022-11-15T04:11:30;1.67;;;1.58;;
21513;SDS011;10918;48.102;11.636;2022-11-15T04:13:56;2.53;;;2.33;;
21513;SDS011;10918;48.102;11.636;2022-11-15T04:16:22;2.65;;;1.80;;
21513;SDS011;10918;48.102;11.636;2022-11-15T04:18:48;2.03;;;1.55;;
21513;SDS011;10918;48.102;11.636;2022-11-15T04:21:34;2.28;;;1.50;;
21513;SDS011;10918;48.102;11.636;2022-11-15T04:24:18;2.75;;;1.42;;
21513;SDS011;10918;48.102;11.636;2022-11-15T04:26:44;1.95;;;1.50;;
21513;SDS011;10918;48.102;11.636;2022-11-15T04:29:10;2.03;;;1.70;;
21513;SDS011;10918;48.102;11.636;2022-11-15T04:31:55;1.90;;;1.67;;
21513;SDS011;10918;48.102;11.636;2022-11-15T04:34:21;2.92;;;1.80;;
21513;SDS011;10918;48.102;11.636;2022-11-15T04:36:47;1.70;;;1.60;;
21513;SDS011;10918;48.102;11.636;2022-11-15T04:39:32;3.90;;;1.90;;
21513;SDS011;10918;48.102;11.636;2022-11-15T04:41:57;2.25;;;1.70;;
21513;SDS011;10918;48.102;11.636;2022-11-15T04:44:23;3.90;;;1.98;;
21513;SDS011;10918;48.102;11.636;2022-11-15T04:46:49;3.10;;;1.92;;
21513;SDS011;10918;48.102;11.636;2022-11-15T04:49:15;2.50;;;1.90;;
21513;SDS011;10918;48.102;11.636;2022-11-15T04:51:41;2.47;;;2.10;;
21513;SDS011;10918;48.102;11.636;2022-11-15T04:54:07;2.17;;;1.98;;
21513;SDS011;10918;48.102;11.636;2022-11-15T04:56:33;2.85;;;2.20;;
21513;SDS011;10918;48.102;11.636;2022-11-15T04:58:59;4.47;;;2.50;;
21513;SDS011;10918;48.102;11.636;2022-11-15T05:01:25;3.13;;;2.28;;
21513;SDS011;10918;48.102;11.636;2022-11-15T05:03:51;2.55;;;2.13;;
21513;SDS011;10918;48.102;11.636;2022-11-15T05:06:36;3.83;;;2.10;;
21513;SDS011;10918;48.102;11.636;2022-11-15T05:09:02;2.47;;;2.05;;
21513;SDS011;10918;48.102;11.636;2022-11-15T05:11:28;3.95;;;2.05;;
21513;SDS011;10918;48.102;11.636;2022-11-15T05:13:54;2.88;;;2.08;;
21513;SDS011;10918;48.102;11.636;2022-11-15T05:16:20;2.55;;;1.80;;
21513;SDS011;10918;48.102;11.636;2022-11-15T05:18:46;2.05;;;1.52;;
21513;SDS011;10918;48.102;11.636;2022-11-15T05:21:15;1.88;;;1.30;;
21513;SDS011;10918;48.102;11.636;2022-11-15T05:23:41;3.47;;;2.35;;
21513;SDS011;10918;48.102;11.636;2022-11-15T05:26:08;1.67;;;1.50;;
21513;SDS011;10918;48.102;11.636;2022-11-15T05:28:34;2.58;;;2.03;;
21513;SDS011;10918;48.102;11.636;2022-11-15T05:31:05;3.05;;;1.90;;
21513;SDS011;10918;48.102;11.636;2022-11-15T05:33:32;2.45;;;1.90;;
21513;SDS011;10918;48.102;11.636;2022-11-15T05:36:07;2.08;;;1.50;;
21513;SDS011;10918;48.102;11.636;2022-11-15T05:38:35;2.97;;;2.10;;
21513;SDS011;10918;48.102;11.636;2022-11-15T05:41:01;2.33;;;1.73;;
21513;SDS011;10918;48.102;11.636;2022-11-15T05:43:27;2.33;;;1.60;;
21513;SDS011;10918;48.102;11.636;2022-11-15T05:45:56;2.78;;;2.10;;
21513;SDS011;10918;48.102;11.636;2022-11-15T05:48:22;3.80;;;2.00;;
21513;SDS011;10918;48.102;11.636;2022-11-15T05:50:48;2.03;;;1.52;;
21513;SDS011;10918;48.102;11.636;2022-11-15T05:53:15;3.05;;;2.20;;
21513;SDS011;10918;48.102;11.636;2022-11-15T05:55:41;2.00;;;1.80;;
21513;SDS011;10918;48.102;11.636;2022-11-15T05:58:08;3.13;;;1.90;;
21513;SDS011;10918;48.102;11.636;2022-11-15T06:00:34;2.38;;;1.88;;
21513;SDS011;10918;48.102;11.636;2022-11-15T06:02:59;2.75;;;1.90;;
21513;SDS011;10918;48.102;11.636;2022-11-15T06:05:25;2.55;;;2.05;;
21513;SDS011;10918;48.102;11.636;2022-11-15T06:07:51;2.47;;;1.60;;
21513;SDS011;10918;48.102;11.636;2022-11-15T06:10:17;3.22;;;1.92;;
21513;SDS011;10918;48.102;11.636;2022-11-15T06:12:43;3.25;;;2.70;;
21513;SDS011;10918;48.102;11.636;2022-11-15T06:15:09;3.75;;;2.08;;
21513;SDS011;10918;48.102;11.636;2022-11-15T06:17:35;2.10;;;1.90;;
21513;SDS011;10918;48.102;11.636;2022-11-15T06:20:01;2.70;;;1.95;;
21513;SDS011;10918;48.102;11.636;2022-11-15T06:22:28;2.92;;;2.20;;
21513;SDS011;10918;48.102;11.636;2022-11-15T06:24:54;3.53;;;2.35;;
21513;SDS011;10918;48.102;11.636;2022-11-15T06:27:20;2.95;;;2.13;;
21513;SDS011;10918;48.102;11.636;2022-11-15T06:29:46;5.65;;;2.25;;
21513;SDS011;10918;48.102;11.636;2022-11-15T06:32:12;2.97;;;2.35;;
21513;SDS011;10918;48.102;11.636;2022-11-15T06:34:38;5.25;;;2.67;;
21513;SDS011;10918;48.102;11.636;2022-11-15T06:37:04;4.00;;;2.35;;
21513;SDS011;10918;48.102;11.636;2022-11-15T06:39:30;4.07;;;2.67;;
21513;SDS011;10918;48.102;11.636;2022-11-15T06:41:56;2.97;;;2.28;;
21513;SDS011;10918;48.102;11.636;2022-11-15T06:44:22;5.70;;;2.95;;
21513;SDS011;10918;48.102;11.636;2022-11-15T06:46:47;3.65;;;2.63;;
21513;SDS011;10918;48.102;11.636;2022-11-15T06:49:13;3.75;;;3.03;;
21513;SDS011;10918;48.102;11.636;2022-11-15T06:51:39;4.47;;;2.88;;
21513;SDS011;10918;48.102;11.636;2022-11-15T06:54:05;4.07;;;2.97;;
21513;SDS011;10918;48.102;11.636;2022-11-15T06:56:31;4.00;;;3.08;;
21513;SDS011;10918;48.102;11.636;2022-11-15T06:58:59;3.50;;;2.67;;
21513;SDS011;10918;48.102;11.636;2022-11-15T07:01:25;3.65;;;2.65;;
21513;SDS011;10918;48.102;11.636;2022-11-15T07:03:51;4.65;;;2.42;;
21513;SDS011;10918;48.102;11.636;2022-11-15T07:06:17;4.28;;;3.10;;
21513;SDS011;10918;48.102;11.636;2022-11-15T07:08:43;5.43;;;3.40;;
21513;SDS011;10918;48.102;11.636;2022-11-15T07:11:09;3.72;;;2.78;;
21513;SDS011;10918;48.102;11.636;2022-11-15T07:13:35;4.70;;;2.88;;
21513;SDS011;10918;48.102;11.636;2022-11-15T07:16:05;3.47;;;2.60;;
21513;SDS011;10918;48.102;11.636;2022-11-15T07:18:35;5.10;;;3.38;;
21513;SDS011;10918;48.102;11.636;2022-11-15T07:21:04;4.65;;;3.13;;
21513;SDS011;10918;48.102;11.636;2022-11-15T07:23:30;4.72;;;3.30;;
21513;SDS011;10918;48.102;11.636;2022-11-15T07:25:59;5.20;;;4.05;;
21513;SDS011;10918;48.102;11.636;2022-11-15T07:28:25;7.03;;;5.03;;
21513;SDS011;10918;48.102;11.636;2022-11-15T07:30:51;4.68;;;3.50;;
21513;SDS011;10918;48.102;11.636;2022-11-15T07:33:17;7.97;;;3.10;;
21513;SDS011;10918;48.102;11.636;2022-11-15T07:35:43;3.88;;;3.47;;
21513;SDS011;10918;48.102;11.636;2022-11-15T07:38:13;2.97;;;2.45;;
21513;SDS011;10918;48.102;11.636;2022-11-15T07:40:40;3.72;;;2.63;;
21513;SDS011;10918;48.102;11.636;2022-11-15T07:43:06;5.95;;;3.22;;
21513;SDS011;10918;48.102;11.636;2022-11-15T07:45:33;4.90;;;2.70;;
21513;SDS011;10918;48.102;11.636;2022-11-15T07:47:59;4.93;;;2.70;;
21513;SDS011;10918;48.102;11.636;2022-11-15T07:50:26;4.35;;;2.25;;
21513;SDS011;10918;48.102;11.636;2022-11-15T07:52:58;4.85;;;2.88;;
21513;SDS011;10918;48.102;11.636;2022-11-15T07:55:24;1.83;;;1.70;;
21513;SDS011;10918;48.102;11.636;2022-11-15T07:57:52;2.63;;;2.00;;
21513;SDS011;10918;48.102;11.636;2022-11-15T08:00:18;4.90;;;2.25;;
21513;SDS011;10918;48.102;11.636;2022-11-15T08:02:45;3.33;;;2.28;;
21513;SDS011;10918;48.102;11.636;2022-11-15T08:05:11;3.22;;;2.20;;
21513;SDS011;10918;48.102;11.636;2022-11-15T08:07:37;3.03;;;2.05;;
21513;SDS011;10918;48.102;11.636;2022-11-15T08:10:05;8.25;;;3.65;;
21513;SDS011;10918;48.102;11.636;2022-11-15T08:12:32;2.45;;;2.00;;
21513;SDS011;10918;48.102;11.636;2022-11-15T08:14:59;2.35;;;2.00;;
21513;SDS011;10918;48.102;11.636;2022-11-15T08:17:25;3.13;;;1.80;;
21513;SDS011;10918;48.102;11.636;2022-11-15T08:19:51;3.90;;;1.88;;
21513;SDS011;10918;48.102;11.636;2022-11-15T08:22:17;2.70;;;1.50;;
21513;SDS011;10918;48.102;11.636;2022-11-15T08:24:43;2.80;;;2.05;;
21513;SDS011;10918;48.102;11.636;2022-11-15T08:27:09;2.65;;;1.80;;
21513;SDS011;10918;48.102;11.636;2022-11-15T08:29:40;3.90;;;1.90;;
21513;SDS011;10918;48.102;11.636;2022-11-15T08:32:06;2.45;;;1.85;;
21513;SDS011;10918;48.102;11.636;2022-11-15T08:34:32;2.72;;;1.85;;
21513;SDS011;10918;48.102;11.636;2022-11-15T08:36:58;5.03;;;2.38;;
21513;SDS011;10918;48.102;11.636;2022-11-15T08:39:24;3.67;;;2.20;;
21513;SDS011;10918;48.102;11.636;2022-11-15T08:41:50;4.00;;;2.28;;
21513;SDS011;10918;48.102;11.636;2022-11-15T08:44:16;5.45;;;2.17;;
21513;SDS011;10918;48.102;11.636;2022-11-15T08:46:44;3.00;;;2.33;;
21513;SDS011;10918;48.102;11.636;2022-11-15T08:49:11;4.00;;;2.58;;
21513;SDS011;10918;48.102;11.636;2022-11-15T08:51:37;5.25;;;1.98;;
21513;SDS011;10918;48.102;11.636;2022-11-15T08:54:03;3.65;;;2.30;;
21513;SDS011;10918;48.102;11.636;2022-11-15T08:56:29;5.40;;;2.30;;
21513;SDS011;10918;48.102;11.636;2022-11-15T08:58:55;2.45;;;2.15;;
21513;SDS011;10918;48.102;11.636;2022-11-15T09:01:21;3.25;;;2.08;;
21513;SDS011;10918;48.102;11.636;2022-11-15T09:03:47;2.20;;;1.85;;
21513;SDS011;10918;48.102;11.636;2022-11-15T09:06:13;2.47;;;1.80;;
21513;SDS011;10918;48.102;11.636;2022-11-15T09:08:39;2.75;;;2.10;;
21513;SDS011;10918;48.102;11.636;2022-11-15T09:11:06;2.60;;;1.77;;
21513;SDS011;10918;48.102;11.636;2022-11-15T09:13:32;2.03;;;1.80;;
21513;SDS011;10918;48.102;11.636;2022-11-15T09:15:59;5.28;;;2.03;;
21513;SDS011;10918;48.102;11.636;2022-11-15T09:18:25;5.70;;;1.60;;
21513;SDS011;10918;48.102;11.636;2022-11-15T09:20:51;2.10;;;1.90;;
21513;SDS011;10918;48.102;11.636;2022-11-15T09:23:17;3.15;;;1.63;;
21513;SDS011;10918;48.102;11.636;2022-11-15T09:25:43;2.00;;;1.83;;
21513;SDS011;10918;48.102;11.636;2022-11-15T09:28:09;3.78;;;2.03;;
21513;SDS011;10918;48.102;11.636;2022-11-15T09:30:35;3.05;;;2.10;;
21513;SDS011;10918;48.102;11.636;2022-11-15T09:33:11;3.42;;;2.25;;
21513;SDS011;10918;48.102;11.636;2022-11-15T09:35:37;3.05;;;1.90;;
21513;SDS011;10918;48.102;11.636;2022-11-15T09:38:03;2.15;;;1.73;;
21513;SDS011;10918;48.102;11.636;2022-11-15T09:40:30;2.33;;;1.88;;
21513;SDS011;10918;48.102;11.636;2022-11-15T09:50:46;2.55;;;1.95;;
21513;SDS011;10918;48.102;11.636;2022-11-15T09:53:21;1.98;;;1.73;;
21513;SDS011;10918;48.102;11.636;2022-11-15T09:55:58;2.05;;;1.63;;
21513;SDS011;10918;48.102;11.636;2022-11-15T09:58:34;3.53;;;1.70;;
21513;SDS011;10918;48.102;11.636;2022-11-15T10:01:02;2.25;;;1.80;;
21513;SDS011;10918;48.102;11.636;2022-11-15T10:03:33;1.70;;;1.60;;
21513;SDS011;10918;48.102;11.636;2022-11-15T10:06:00;2.35;;;1.70;;
21513;SDS011;10918;48.102;11.636;2022-11-15T10:10:56;1.60;;;1.50;;
21513;SDS011;10918;48.102;11.636;2022-11-15T10:13:24;3.05;;;1.83;;
21513;SDS011;10918;48.102;11.636;2022-11-15T10:15:52;2.42;;;1.80;;
21513;SDS011;10918;48.102;11.636;2022-11-15T10:18:22;1.70;;;1.48;;
21513;SDS011;10918;48.102;11.636;2022-11-15T10:20:57;2.92;;;1.90;;
21513;SDS011;10918;48.102;11.636;2022-11-15T10:23:24;3.42;;;1.88;;
21513;SDS011;10918;48.102;11.636;2022-11-15T10:25:51;2.83;;;1.60;;
21513;SDS011;10918;48.102;11.636;2022-11-15T10:30:48;1.92;;;1.50;;
21513;SDS011;10918;48.102;11.636;2022-11-15T10:33:17;4.75;;;1.50;;
21513;SDS011;10918;48.102;11.636;2022-11-15T10:35:45;2.95;;;1.50;;
21513;SDS011;10918;48.102;11.636;2022-11-15T10:38:11;1.70;;;1.40;;
21513;SDS011;10918;48.102;11.636;2022-11-15T10:40:38;1.40;;;1.30;;
21513;SDS011;10918;48.102;11.636;2022-11-15T10:43:17;1.73;;;1.55;;
21513;SDS011;10918;48.102;11.636;2022-11-15T10:45:44;1.60;;;1.50;;
21513;SDS011;10918;48.102;11.636;2022-11-15T10:50:37;1.45;;;1.27;;
21513;SDS011;10918;48.102;11.636;2022-11-15T10:53:04;1.77;;;1.20;;
21513;SDS011;10918;48.102;11.636;2022-11-15T10:55:36;2.05;;;1.35;;
21513;SDS011;10918;48.102;11.636;2022-11-15T10:58:09;1.58;;;1.25;;
21513;SDS011;10918;48.102;11.636;2022-11-15T11:00:44;1.50;;;1.40;;
21513;SDS011;10918;48.102;11.636;2022-11-15T11:03:33;2.15;;;1.40;;
21513;SDS011;10918;48.102;11.636;2022-11-15T11:06:03;1.75;;;1.30;;
21513;SDS011;10918;48.102;11.636;2022-11-15T11:08:29;1.45;;;1.35;;
21513;SDS011;10918;48.102;11.636;2022-11-15T11:10:57;2.17;;;1.33;;
21513;SDS011;10918;48.102;11.636;2022-11-15T11:13:24;2.15;;;1.50;;
21513;SDS011;10918;48.102;11.636;2022-11-15T11:15:55;1.98;;;1.38;;
21513;SDS011;10918;48.102;11.636;2022-11-15T11:18:29;1.50;;;1.40;;
21513;SDS011;10918;48.102;11.636;2022-11-15T11:21:00;2.47;;;1.30;;
21513;SDS011;10918;48.102;11.636;2022-11-15T11:28:48;1.60;;;1.50;;
21513;SDS011;10918;48.102;11.636;2022-11-15T11:38:50;3.40;;;1.50;;
21513;SDS011;10918;48.102;11.636;2022-11-15T11:41:37;5.40;;;1.50;;
21513;SDS011;10918;48.102;11.636;2022-11-15T11:44:15;1.67;;;1.40;;
21513;SDS011;10918;48.102;11.636;2022-11-15T11:49:09;1.90;;;1.55;;
21513;SDS011;10918;48.102;11.636;2022-11-15T11:51:43;2.88;;;1.55;;
21513;SDS011;10918;48.102;11.636;2022-11-15T11:54:15;2.65;;;1.60;;
21513;SDS011;10918;48.102;11.636;2022-11-15T11:56:44;1.40;;;1.30;;
21513;SDS011;10918;48.102;11.636;2022-11-15T11:59:22;3.75;;;1.73;;
21513;SDS011;10918;48.102;11.636;2022-11-15T12:01:49;2.83;;;1.45;;
21513;SDS011;10918;48.102;11.636;2022-11-15T12:06:42;1.50;;;1.40;;
21513;SDS011;10918;48.102;11.636;2022-11-15T12:09:15;1.40;;;1.30;;
21513;SDS011;10918;48.102;11.636;2022-11-15T12:11:55;2.03;;;1.52;;
21513;SDS011;10918;48.102;11.636;2022-11-15T12:16:51;1.35;;;1.25;;
21513;SDS011;10918;48.102;11.636;2022-11-15T12:19:17;2.60;;;1.27;;
21513;SDS011;10918;48.102;11.636;2022-11-15T12:21:46;2.88;;;1.00;;
21513;SDS011;10918;48.102;11.636;2022-11-15T12:27:30;1.50;;;1.40;;
21513;SDS011;10918;48.102;11.636;2022-11-15T12:29:42;1.77;;;1.35;;
21513;SDS011;10918;48.102;11.636;2022-11-15T12:32:26;1.50;;;1.40;;
21513;SDS011;10918;48.102;11.636;2022-11-15T12:34:52;1.52;;;1.30;;
21513;SDS011;10918;48.102;11.636;2022-11-15T12:42:42;2.42;;;1.30;;
21513;SDS011;10918;48.102;11.636;2022-11-15T12:45:28;1.98;;;1.30;;
21513;SDS011;10918;48.102;11.636;2022-11-15T12:50:56;2.05;;;1.25;;
21513;SDS011;10918;48.102;11.636;2022-11-15T12:56:08;2.25;;;1.40;;
21513;SDS011;10918;48.102;11.636;2022-11-15T12:58:45;1.38;;;1.27;;
21513;SDS011;10918;48.102;11.636;2022-11-15T13:06:43;2.53;;;1.55;;
21513;SDS011;10918;48.102;11.636;2022-11-15T13:11:54;1.35;;;1.25;;
21513;SDS011;10918;48.102;11.636;2022-11-15T13:19:46;1.85;;;1.48;;
21513;SDS011;10918;48.102;11.636;2022-11-15T13:22:13;2.40;;;1.40;;
21513;SDS011;10918;48.102;11.636;2022-11-15T13:24:58;2.95;;;1.50;;
21513;SDS011;10918;48.102;11.636;2022-11-15T13:27:26;1.38;;;1.27;;
21513;SDS011;10918;48.102;11.636;2022-11-15T13:29:52;2.70;;;1.60;;
21513;SDS011;10918;48.102;11.636;2022-11-15T13:32:18;2.03;;;1.65;;
21513;SDS011;10918;48.102;11.636;2022-11-15T13:34:45;1.98;;;1.15;;
21513;SDS011;10918;48.102;11.636;2022-11-15T13:39:47;1.77;;;1.42;;
21513;SDS011;10918;48.102;11.636;2022-11-15T13:42:15;3.60;;;1.92;;
21513;SDS011;10918;48.102;11.636;2022-11-15T13:44:41;2.08;;;1.50;;
21513;SDS011;10918;48.102;11.636;2022-11-15T13:47:20;2.58;;;1.75;;
21513;SDS011;10918;48.102;11.636;2022-11-15T13:49:46;2.20;;;1.92;;
21513;SDS011;10918;48.102;11.636;2022-11-15T13:52:14;2.20;;;1.75;;
21513;SDS011;10918;48.102;11.636;2022-11-15T13:54:46;3.28;;;2.22;;
21513;SDS011;10918;48.102;11.636;2022-11-15T13:57:18;5.43;;;4.30;;
21513;SDS011;10918;48.102;11.636;2022-11-15T14:02:18;5.18;;;1.98;;
21513;SDS011;10918;48.102;11.636;2022-11-15T14:04:53;2.17;;;1.63;;
21513;SDS011;10918;48.102;11.636;2022-11-15T14:07:20;2.03;;;1.92;;
21513;SDS011;10918;48.102;11.636;2022-11-15T14:09:47;1.92;;;1.73;;
21513;SDS011;10918;48.102;11.636;2022-11-15T14:12:50;3.50;;;1.65;;
21513;SDS011;10918;48.102;11.636;2022-11-15T14:15:23;3.95;;;1.70;;
21513;SDS011;10918;48.102;11.636;2022-11-15T14:17:50;2.60;;;1.80;;
21513;SDS011;10918;48.102;11.636;2022-11-15T14:20:35;2.00;;;1.80;;
21513;SDS011;10918;48.102;11.636;2022-11-15T14:23:02;4.53;;;3.05;;
21513;SDS011;10918;48.102;11.636;2022-11-15T14:25:33;2.10;;;1.90;;
21513;SDS011;10918;48.102;11.636;2022-11-15T14:30:35;3.70;;;2.78;;
21513;SDS011;10918;48.102;11.636;2022-11-15T14:33:01;3.90;;;2.20;;
21513;SDS011;10918;48.102;11.636;2022-11-15T14:35:27;3.78;;;2.03;;
21513;SDS011;10918;48.102;11.636;2022-11-15T14:37:53;2.10;;;1.70;;
21513;SDS011;10918;48.102;11.636;2022-11-15T14:40:20;4.90;;;2.42;;
21513;SDS011;10918;48.102;11.636;2022-11-15T14:42:47;2.50;;;2.03;;
21513;SDS011;10918;48.102;11.636;2022-11-15T14:47:40;3.53;;;1.90;;
21513;SDS011;10918;48.102;11.636;2022-11-15T14:50:06;2.83;;;1.73;;
21513;SDS011;10918;48.102;11.636;2022-11-15T14:52:32;1.63;;;1.40;;
21513;SDS011;10918;48.102;11.636;2022-11-15T14:55:00;1.70;;;1.50;;
21513;SDS011;10918;48.102;11.636;2022-11-15T14:57:27;3.78;;;2.80;;
21513;SDS011;10918;48.102;11.636;2022-11-15T14:59:53;3.60;;;2.83;;
21513;SDS011;10918;48.102;11.636;2022-11-15T15:02:20;1.92;;;1.75;;
21513;SDS011;10918;48.102;11.636;2022-11-15T15:04:47;2.30;;;2.08;;
21513;SDS011;10918;48.102;11.636;2022-11-15T15:07:13;1.73;;;1.63;;
21513;SDS011;10918;48.102;11.636;2022-11-15T15:09:39;4.18;;;2.40;;
21513;SDS011;10918;48.102;11.636;2022-11-15T15:12:09;2.53;;;2.03;;
21513;SDS011;10918;48.102;11.636;2022-11-15T15:14:37;2.58;;;2.05;;
21513;SDS011;10918;48.102;11.636;2022-11-15T15:17:03;3.58;;;2.33;;
21513;SDS011;10918;48.102;11.636;2022-11-15T15:19:29;1.85;;;1.67;;
21513;SDS011;10918;48.102;11.636;2022-11-15T15:21:55;5.55;;;2.30;;
21513;SDS011;10918;48.102;11.636;2022-11-15T15:24:21;4.60;;;2.58;;
21513;SDS011;10918;48.102;11.636;2022-11-15T15:26:47;2.85;;;1.70;;
21513;SDS011;10918;48.102;11.636;2022-11-15T15:29:13;2.55;;;1.92;;
21513;SDS011;10918;48.102;11.636;2022-11-15T15:31:39;2.25;;;2.05;;
21513;SDS011;10918;48.102;11.636;2022-11-15T15:34:05;3.35;;;2.38;;
21513;SDS011;10918;48.102;11.636;2022-11-15T15:36:31;4.72;;;2.63;;
21513;SDS011;10918;48.102;11.636;2022-11-15T15:38:57;6.13;;;2.80;;
21513;SDS011;10918;48.102;11.636;2022-11-15T15:41:23;4.68;;;2.90;;
21513;SDS011;10918;48.102;11.636;2022-11-15T15:43:49;8.32;;;2.90;;
21513;SDS011;10918;48.102;11.636;2022-11-15T15:46:16;5.63;;;3.03;;
21513;SDS011;10918;48.102;11.636;2022-11-15T15:48:42;7.15;;;3.40;;
21513;SDS011;10918;48.102;11.636;2022-11-15T15:51:08;3.42;;;3.00;;
21513;SDS011;10918;48.102;11.636;2022-11-15T15:53:34;7.85;;;3.28;;
21513;SDS011;10918;48.102;11.636;2022-11-15T15:56:01;8.00;;;3.40;;
21513;SDS011;10918;48.102;11.636;2022-11-15T15:58:27;8.27;;;4.75;;
21513;SDS011;10918;48.102;11.636;2022-11-15T16:00:52;5.85;;;4.03;;
21513;SDS011;10918;48.102;11.636;2022-11-15T16:03:18;4.45;;;3.00;;
21513;SDS011;10918;48.102;11.636;2022-11-15T16:05:44;5.07;;;3.47;;
21513;SDS011;10918;48.102;11.636;2022-11-15T16:08:17;8.77;;;3.33;;
21513;SDS011;10918;48.102;11.636;2022-11-15T16:10:44;6.55;;;3.58;;
21513;SDS011;10918;48.102;11.636;2022-11-15T16:13:10;6.50;;;4.57;;